« Back
NWS Peachtree City, Ga » Text Product » MCN Terminal Aerodrome Forecast


Printer-friendly Version
Current Version              Previous Versions:   1  2  3  4  5  6  7  8  9  

Terminal Aerodrome Forecast

991
FTUS42 KFFC 292303 AAB
TAFMCN
TAF AMD
KMCN 292303Z 2923/3018 06009KT P6SM VCSH FEW040 BKN045 BKN250
      TEMPO 2923/2924 VRB15G40KT 5SM TSRA BKN030CB
     FM300000 08005KT P6SM SCT060
     FM301100 05004KT 5SM BR SCT250
     FM301300 06006KT P6SM SCT170
     FM301500 07008KT P6SM SCT035=

USA.gov is the U.S. government's official web portal to all federal, state and local government web resources and services.